sensor_id;sensor_type;location;lat;lon;timestamp;pressure;altitude;pressure_sealevel;temperature;humidity
51083;BME280;37131;42.694;23.350;2023-02-03T00:00:02;95727.63;;;3.07;69.63
51083;BME280;37131;42.694;23.350;2023-02-03T00:02:28;95732.78;;;2.91;70.48
51083;BME280;37131;42.694;23.350;2023-02-03T00:04:53;95716.59;;;2.74;70.92
51083;BME280;37131;42.694;23.350;2023-02-03T00:07:19;95725.94;;;2.75;72.24
51083;BME280;37131;42.694;23.350;2023-02-03T00:09:44;95732.69;;;2.68;72.79
51083;BME280;37131;42.694;23.350;2023-02-03T00:12:09;95733.31;;;2.70;72.67
51083;BME280;37131;42.694;23.350;2023-02-03T00:14:35;95740.25;;;2.69;73.70
51083;BME280;37131;42.694;23.350;2023-02-03T00:17:02;95743.13;;;2.74;74.32
51083;BME280;37131;42.694;23.350;2023-02-03T00:19:27;95747.47;;;2.49;75.31
51083;BME280;37131;42.694;23.350;2023-02-03T00:21:53;95734.78;;;2.56;76.27
51083;BME280;37131;42.694;23.350;2023-02-03T00:24:18;95740.56;;;2.74;75.27
51083;BME280;37131;42.694;23.350;2023-02-03T00:26:44;95744.56;;;2.69;75.74
51083;BME280;37131;42.694;23.350;2023-02-03T00:29:10;95745.22;;;2.87;75.56
51083;BME280;37131;42.694;23.350;2023-02-03T00:31:35;95751.66;;;2.83;76.12
51083;BME280;37131;42.694;23.350;2023-02-03T00:34:01;95741.03;;;2.86;76.36
51083;BME280;37131;42.694;23.350;2023-02-03T00:36:26;95733.59;;;3.08;75.12
51083;BME280;37131;42.694;23.350;2023-02-03T00:38:52;95752.28;;;2.93;75.92
51083;BME280;37131;42.694;23.350;2023-02-03T00:41:19;95759.88;;;2.78;76.54
51083;BME280;37131;42.694;23.350;2023-02-03T00:43:45;95760.22;;;2.42;78.19
51083;BME280;37131;42.694;23.350;2023-02-03T00:46:10;95763.59;;;2.68;77.58
51083;BME280;37131;42.694;23.350;2023-02-03T00:48:36;95768.56;;;2.28;80.01
51083;BME280;37131;42.694;23.350;2023-02-03T00:51:01;95776.75;;;2.40;79.73
51083;BME280;37131;42.694;23.350;2023-02-03T00:53:26;95763.06;;;2.23;81.40
51083;BME280;37131;42.694;23.350;2023-02-03T00:55:52;95761.59;;;2.12;81.43
51083;BME280;37131;42.694;23.350;2023-02-03T00:58:17;95777.22;;;2.27;81.61
51083;BME280;37131;42.694;23.350;2023-02-03T01:00:42;95761.88;;;1.84;83.92
51083;BME280;37131;42.694;23.350;2023-02-03T01:03:08;95776.97;;;1.79;83.25
51083;BME280;37131;42.694;23.350;2023-02-03T01:05:34;95778.47;;;2.06;83.90
51083;BME280;37131;42.694;23.350;2023-02-03T01:08:00;95763.34;;;1.95;83.56
51083;BME280;37131;42.694;23.350;2023-02-03T01:10:26;95787.53;;;2.19;83.18
51083;BME280;37131;42.694;23.350;2023-02-03T01:12:52;95787.81;;;2.07;83.07
51083;BME280;37131;42.694;23.350;2023-02-03T01:15:17;95790.38;;;2.07;84.39
51083;BME280;37131;42.694;23.350;2023-02-03T01:17:43;95785.75;;;2.27;83.60
51083;BME280;37131;42.694;23.350;2023-02-03T01:20:09;95779.81;;;2.19;83.58
51083;BME280;37131;42.694;23.350;2023-02-03T01:22:36;95773.16;;;2.08;84.27
51083;BME280;37131;42.694;23.350;2023-02-03T01:25:01;95772.81;;;1.95;83.85
51083;BME280;37131;42.694;23.350;2023-02-03T01:27:27;95768.19;;;1.98;84.19
51083;BME280;37131;42.694;23.350;2023-02-03T01:29:52;95765.41;;;1.91;84.36
51083;BME280;37131;42.694;23.350;2023-02-03T01:32:18;95757.06;;;1.98;83.19
51083;BME280;37131;42.694;23.350;2023-02-03T01:34:43;95762.53;;;1.95;82.66
51083;BME280;37131;42.694;23.350;2023-02-03T01:37:09;95773.31;;;1.98;82.61
51083;BME280;37131;42.694;23.350;2023-02-03T01:39:34;95775.69;;;1.83;83.11
51083;BME280;37131;42.694;23.350;2023-02-03T01:41:59;95777.13;;;1.86;82.42
51083;BME280;37131;42.694;23.350;2023-02-03T01:44:46;95783.94;;;2.03;82.14
51083;BME280;37131;42.694;23.350;2023-02-03T01:47:26;95785.66;;;1.86;80.97
51083;BME280;37131;42.694;23.350;2023-02-03T01:49:59;95787.25;;;1.87;81.63
51083;BME280;37131;42.694;23.350;2023-02-03T01:52:26;95737.63;;;1.36;82.05
51083;BME280;37131;42.694;23.350;2023-02-03T01:54:56;95771.63;;;1.64;82.34
51083;BME280;37131;42.694;23.350;2023-02-03T01:57:51;95793.66;;;1.75;82.12
51083;BME280;37131;42.694;23.350;2023-02-03T02:00:18;95803.16;;;1.83;81.66
51083;BME280;37131;42.694;23.350;2023-02-03T02:02:45;95799.81;;;1.90;81.30
51083;BME280;37131;42.694;23.350;2023-02-03T02:07:48;95790.44;;;1.73;80.82
51083;BME280;37131;42.694;23.350;2023-02-03T02:10:15;95791.13;;;1.91;80.62
51083;BME280;37131;42.694;23.350;2023-02-03T02:12:40;95797.69;;;1.78;80.74
51083;BME280;37131;42.694;23.350;2023-02-03T02:15:06;95794.59;;;1.74;80.58
51083;BME280;37131;42.694;23.350;2023-02-03T02:20:57;95794.34;;;1.85;79.95
51083;BME280;37131;42.694;23.350;2023-02-03T02:23:49;95798.69;;;1.85;80.22
51083;BME280;37131;42.694;23.350;2023-02-03T02:26:59;95795.81;;;1.96;78.95
51083;BME280;37131;42.694;23.350;2023-02-03T02:35:47;95817.31;;;1.87;79.71
51083;BME280;37131;42.694;23.350;2023-02-03T02:41:12;95829.84;;;1.82;79.83
51083;BME280;37131;42.694;23.350;2023-02-03T02:43:48;95828.16;;;2.07;78.69
51083;BME280;37131;42.694;23.350;2023-02-03T02:46:23;95787.31;;;1.53;79.06
51083;BME280;37131;42.694;23.350;2023-02-03T02:49:01;95820.09;;;2.02;78.85
51083;BME280;37131;42.694;23.350;2023-02-03T02:51:30;95836.84;;;2.06;78.25
51083;BME280;37131;42.694;23.350;2023-02-03T02:54:02;95828.16;;;2.07;78.13
51083;BME280;37131;42.694;23.350;2023-02-03T02:56:29;95819.78;;;1.97;78.66
51083;BME280;37131;42.694;23.350;2023-02-03T02:58:57;95820.84;;;1.86;78.92
51083;BME280;37131;42.694;23.350;2023-02-03T03:01:24;95821.59;;;1.70;79.40
51083;BME280;37131;42.694;23.350;2023-02-03T03:03:49;95823.19;;;1.71;79.35
51083;BME280;37131;42.694;23.350;2023-02-03T03:06:35;95830.81;;;1.81;78.76
51083;BME280;37131;42.694;23.350;2023-02-03T03:09:13;95827.06;;;1.75;78.97
51083;BME280;37131;42.694;23.350;2023-02-03T03:11:45;95824.19;;;1.70;77.60
51083;BME280;37131;42.694;23.350;2023-02-03T03:14:14;95836.22;;;1.69;77.08
51083;BME280;37131;42.694;23.350;2023-02-03T03:16:44;95827.03;;;1.67;77.87
51083;BME280;37131;42.694;23.350;2023-02-03T03:19:17;95839.16;;;1.83;76.81
51083;BME280;37131;42.694;23.350;2023-02-03T03:21:47;95856.63;;;1.45;77.00
51083;BME280;37131;42.694;23.350;2023-02-03T03:24:17;95838.31;;;1.39;77.60
51083;BME280;37131;42.694;23.350;2023-02-03T03:29:21;95847.81;;;1.47;76.88
51083;BME280;37131;42.694;23.350;2023-02-03T03:31:48;95809.03;;;1.32;77.00
51083;BME280;37131;42.694;23.350;2023-02-03T03:34:14;95847.88;;;1.55;76.26
51083;BME280;37131;42.694;23.350;2023-02-03T03:36:47;95846.25;;;1.54;75.79
51083;BME280;37131;42.694;23.350;2023-02-03T03:44:38;95862.63;;;1.53;74.95
51083;BME280;37131;42.694;23.350;2023-02-03T03:47:15;95861.97;;;1.51;74.58
51083;BME280;37131;42.694;23.350;2023-02-03T03:49:44;95860.66;;;1.47;75.78
51083;BME280;37131;42.694;23.350;2023-02-03T03:52:15;95849.13;;;1.51;74.81
51083;BME280;37131;42.694;23.350;2023-02-03T03:54:43;95856.19;;;1.49;75.01
51083;BME280;37131;42.694;23.350;2023-02-03T03:57:13;95853.19;;;1.62;74.55
51083;BME280;37131;42.694;23.350;2023-02-03T03:59:43;95848.75;;;1.38;75.46
51083;BME280;37131;42.694;23.350;2023-02-03T04:02:11;95863.44;;;1.28;76.03
51083;BME280;37131;42.694;23.350;2023-02-03T04:04:39;95843.38;;;1.31;76.17
51083;BME280;37131;42.694;23.350;2023-02-03T04:07:05;95872.09;;;1.27;76.80
51083;BME280;37131;42.694;23.350;2023-02-03T04:09:31;95870.41;;;1.35;76.34
51083;BME280;37131;42.694;23.350;2023-02-03T04:11:56;95848.84;;;1.28;76.53
51083;BME280;37131;42.694;23.350;2023-02-03T04:14:31;95871.31;;;1.26;77.50
51083;BME280;37131;42.694;23.350;2023-02-03T04:16:58;95876.22;;;1.37;76.91
51083;BME280;37131;42.694;23.350;2023-02-03T04:19:24;95876.59;;;1.51;76.89
51083;BME280;37131;42.694;23.350;2023-02-03T04:21:49;95891.78;;;1.36;76.89
51083;BME280;37131;42.694;23.350;2023-02-03T04:24:15;95897.91;;;1.43;77.01
51083;BME280;37131;42.694;23.350;2023-02-03T04:26:40;95905.59;;;1.43;77.06
51083;BME280;37131;42.694;23.350;2023-02-03T04:29:06;95906.03;;;1.30;77.58
51083;BME280;37131;42.694;23.350;2023-02-03T04:31:31;95909.38;;;1.31;78.18
51083;BME280;37131;42.694;23.350;2023-02-03T04:33:57;95911.00;;;1.32;77.52
51083;BME280;37131;42.694;23.350;2023-02-03T04:36:22;95868.66;;;1.18;76.82
51083;BME280;37131;42.694;23.350;2023-02-03T04:38:48;95919.06;;;1.37;77.61
51083;BME280;37131;42.694;23.350;2023-02-03T04:41:14;95913.50;;;1.23;77.89
51083;BME280;37131;42.694;23.350;2023-02-03T04:43:39;95930.31;;;1.36;77.35
51083;BME280;37131;42.694;23.350;2023-02-03T04:46:05;95931.97;;;1.45;77.79
51083;BME280;37131;42.694;23.350;2023-02-03T04:48:30;95936.41;;;1.35;77.49
51083;BME280;37131;42.694;23.350;2023-02-03T04:51:00;95918.72;;;1.32;77.79
51083;BME280;37131;42.694;23.350;2023-02-03T04:53:26;95939.28;;;1.32;77.40
51083;BME280;37131;42.694;23.350;2023-02-03T04:55:52;95937.00;;;1.55;77.10
51083;BME280;37131;42.694;23.350;2023-02-03T04:58:17;95929.03;;;1.58;77.04
51083;BME280;37131;42.694;23.350;2023-02-03T05:00:43;95943.59;;;1.49;77.12
51083;BME280;37131;42.694;23.350;2023-02-03T05:03:08;95944.22;;;1.51;76.96
51083;BME280;37131;42.694;23.350;2023-02-03T05:05:33;95948.34;;;1.44;77.21
51083;BME280;37131;42.694;23.350;2023-02-03T05:07:59;95945.94;;;1.43;77.15
51083;BME280;37131;42.694;23.350;2023-02-03T05:10:24;95951.34;;;1.57;76.72
51083;BME280;37131;42.694;23.350;2023-02-03T05:12:49;95960.13;;;1.73;75.90
51083;BME280;37131;42.694;23.350;2023-02-03T05:15:15;95949.06;;;1.54;75.70
51083;BME280;37131;42.694;23.350;2023-02-03T05:17:40;95955.22;;;1.62;76.04
51083;BME280;37131;42.694;23.350;2023-02-03T05:20:07;95967.72;;;1.38;75.99
51083;BME280;37131;42.694;23.350;2023-02-03T05:22:32;95973.44;;;1.50;76.10
51083;BME280;37131;42.694;23.350;2023-02-03T05:25:00;95974.41;;;1.49;76.41
51083;BME280;37131;42.694;23.350;2023-02-03T05:27:25;95968.72;;;1.37;76.25
51083;BME280;37131;42.694;23.350;2023-02-03T05:29:50;95974.78;;;1.36;76.56
51083;BME280;37131;42.694;23.350;2023-02-03T05:32:16;95976.38;;;1.55;75.91
51083;BME280;37131;42.694;23.350;2023-02-03T05:34:41;95971.94;;;1.39;76.11
51083;BME280;37131;42.694;23.350;2023-02-03T05:37:06;95967.00;;;1.46;76.08
51083;BME280;37131;42.694;23.350;2023-02-03T05:39:32;95971.69;;;1.51;75.69
51083;BME280;37131;42.694;23.350;2023-02-03T05:41:57;95969.44;;;1.30;76.30
51083;BME280;37131;42.694;23.350;2023-02-03T05:44:25;95951.16;;;1.33;76.28
51083;BME280;37131;42.694;23.350;2023-02-03T05:46:52;95968.97;;;1.34;76.58
51083;BME280;37131;42.694;23.350;2023-02-03T05:49:18;95967.44;;;1.42;76.31
51083;BME280;37131;42.694;23.350;2023-02-03T05:51:44;95981.97;;;1.33;76.85
51083;BME280;37131;42.694;23.350;2023-02-03T05:54:10;95977.84;;;1.40;76.94
51083;BME280;37131;42.694;23.350;2023-02-03T05:56:36;95976.69;;;1.16;77.29
51083;BME280;37131;42.694;23.350;2023-02-03T05:59:01;95996.44;;;1.34;77.08
51083;BME280;37131;42.694;23.350;2023-02-03T06:01:27;95981.81;;;1.34;77.07
51083;BME280;37131;42.694;23.350;2023-02-03T06:03:52;95990.56;;;1.23;76.60
51083;BME280;37131;42.694;23.350;2023-02-03T06:06:18;95993.06;;;1.33;76.50
51083;BME280;37131;42.694;23.350;2023-02-03T06:08:43;95987.66;;;1.18;76.68
51083;BME280;37131;42.694;23.350;2023-02-03T06:11:09;95989.47;;;1.44;76.00
51083;BME280;37131;42.694;23.350;2023-02-03T06:13:35;95985.50;;;1.50;75.45
51083;BME280;37131;42.694;23.350;2023-02-03T06:16:00;95954.59;;;1.23;75.03
51083;BME280;37131;42.694;23.350;2023-02-03T06:18:26;95999.09;;;1.42;75.33
51083;BME280;37131;42.694;23.350;2023-02-03T06:20:51;95996.28;;;1.53;75.17
51083;BME280;37131;42.694;23.350;2023-02-03T06:23:17;95986.81;;;1.54;74.81
51083;BME280;37131;42.694;23.350;2023-02-03T06:25:44;95984.19;;;1.28;74.86
51083;BME280;37131;42.694;23.350;2023-02-03T06:28:09;95992.34;;;1.41;75.42
51083;BME280;37131;42.694;23.350;2023-02-03T06:30:35;96011.38;;;1.56;74.79
51083;BME280;37131;42.694;23.350;2023-02-03T06:33:00;96012.88;;;1.41;74.94
51083;BME280;37131;42.694;23.350;2023-02-03T06:35:26;96014.44;;;1.34;75.35
51083;BME280;37131;42.694;23.350;2023-02-03T06:37:51;96031.81;;;1.40;74.68
51083;BME280;37131;42.694;23.350;2023-02-03T06:40:17;96016.53;;;1.56;74.39
51083;BME280;37131;42.694;23.350;2023-02-03T06:42:46;96039.22;;;1.79;73.07
51083;BME280;37131;42.694;23.350;2023-02-03T06:45:12;96044.47;;;1.96;73.11
51083;BME280;37131;42.694;23.350;2023-02-03T06:47:42;96051.69;;;1.74;72.95
51083;BME280;37131;42.694;23.350;2023-02-03T06:50:09;96046.81;;;1.89;72.28
51083;BME280;37131;42.694;23.350;2023-02-03T06:52:35;96054.16;;;2.02;71.03
51083;BME280;37131;42.694;23.350;2023-02-03T06:55:02;96046.66;;;2.08;71.04
51083;BME280;37131;42.694;23.350;2023-02-03T06:57:28;96030.94;;;2.20;70.52
51083;BME280;37131;42.694;23.350;2023-02-03T06:59:53;96038.47;;;2.13;69.70
51083;BME280;37131;42.694;23.350;2023-02-03T07:02:19;96044.88;;;2.35;69.53
51083;BME280;37131;42.694;23.350;2023-02-03T07:04:44;96042.13;;;2.63;68.27
51083;BME280;37131;42.694;23.350;2023-02-03T07:07:11;96036.38;;;2.43;67.85
51083;BME280;37131;42.694;23.350;2023-02-03T07:09:37;96031.59;;;2.48;67.95
51083;BME280;37131;42.694;23.350;2023-02-03T07:12:03;96040.22;;;2.39;68.32
51083;BME280;37131;42.694;23.350;2023-02-03T07:14:29;96029.59;;;2.34;68.18
51083;BME280;37131;42.694;23.350;2023-02-03T07:16:55;96026.56;;;2.38;68.87
51083;BME280;37131;42.694;23.350;2023-02-03T07:19:21;96025.97;;;2.18;69.58
51083;BME280;37131;42.694;23.350;2023-02-03T07:21:46;96031.22;;;2.08;70.07
51083;BME280;37131;42.694;23.350;2023-02-03T07:24:11;96042.53;;;2.16;69.59
51083;BME280;37131;42.694;23.350;2023-02-03T07:26:37;96033.19;;;2.15;69.70
51083;BME280;37131;42.694;23.350;2023-02-03T07:29:03;96026.47;;;2.22;68.99
51083;BME280;37131;42.694;23.350;2023-02-03T07:31:29;96033.44;;;2.30;68.84
51083;BME280;37131;42.694;23.350;2023-02-03T07:33:55;96040.19;;;2.31;69.08
51083;BME280;37131;42.694;23.350;2023-02-03T07:36:20;96037.88;;;2.54;68.29
51083;BME280;37131;42.694;23.350;2023-02-03T07:38:46;96038.50;;;2.48;67.91
51083;BME280;37131;42.694;23.350;2023-02-03T07:41:11;96038.16;;;2.42;68.41
51083;BME280;37131;42.694;23.350;2023-02-03T07:43:36;96056.41;;;2.57;67.39
51083;BME280;37131;42.694;23.350;2023-02-03T07:46:02;96035.13;;;2.47;67.13
51083;BME280;37131;42.694;23.350;2023-02-03T07:48:27;96049.91;;;2.45;67.11
51083;BME280;37131;42.694;23.350;2023-02-03T07:50:53;96038.66;;;2.46;66.94
51083;BME280;37131;42.694;23.350;2023-02-03T07:53:18;96050.03;;;2.70;66.19
51083;BME280;37131;42.694;23.350;2023-02-03T07:55:44;96055.41;;;2.50;67.07
51083;BME280;37131;42.694;23.350;2023-02-03T07:58:09;96049.41;;;2.76;65.93
51083;BME280;37131;42.694;23.350;2023-02-03T08:00:35;96055.22;;;2.78;65.30
51083;BME280;37131;42.694;23.350;2023-02-03T08:03:01;96046.97;;;2.74;65.59
51083;BME280;37131;42.694;23.350;2023-02-03T08:05:26;96052.34;;;2.81;65.68
51083;BME280;37131;42.694;23.350;2023-02-03T08:07:52;96066.31;;;2.78;65.86
51083;BME280;37131;42.694;23.350;2023-02-03T08:10:17;96056.84;;;2.87;65.23
51083;BME280;37131;42.694;23.350;2023-02-03T08:12:43;96056.84;;;2.87;65.70
51083;BME280;37131;42.694;23.350;2023-02-03T08:15:11;96063.94;;;2.85;65.25
51083;BME280;37131;42.694;23.350;2023-02-03T08:17:36;96059.09;;;2.82;64.95
51083;BME280;37131;42.694;23.350;2023-02-03T08:20:05;96060.59;;;3.01;65.11
51083;BME280;37131;42.694;23.350;2023-02-03T08:22:30;96059.53;;;3.20;64.10
51083;BME280;37131;42.694;23.350;2023-02-03T08:24:55;96065.16;;;3.15;63.23
51083;BME280;37131;42.694;23.350;2023-02-03T08:27:22;96066.75;;;3.08;63.65
51083;BME280;37131;42.694;23.350;2023-02-03T08:29:47;96055.06;;;2.88;63.45
51083;BME280;37131;42.694;23.350;2023-02-03T08:32:16;96065.91;;;2.99;63.55
51083;BME280;37131;42.694;23.350;2023-02-03T08:34:43;96060.97;;;3.23;62.52
51083;BME280;37131;42.694;23.350;2023-02-03T08:37:10;96078.03;;;3.07;62.90
51083;BME280;37131;42.694;23.350;2023-02-03T08:39:36;96058.56;;;3.21;61.96
51083;BME280;37131;42.694;23.350;2023-02-03T08:42:02;96064.88;;;3.35;61.53
51083;BME280;37131;42.694;23.350;2023-02-03T08:44:29;96080.03;;;3.38;60.25
51083;BME280;37131;42.694;23.350;2023-02-03T08:46:55;96089.25;;;3.49;60.82
51083;BME280;37131;42.694;23.350;2023-02-03T08:49:21;96080.88;;;3.72;60.20
51083;BME280;37131;42.694;23.350;2023-02-03T08:51:47;96082.50;;;3.89;59.20
51083;BME280;37131;42.694;23.350;2023-02-03T08:54:13;96091.22;;;3.96;57.44
51083;BME280;37131;42.694;23.350;2023-02-03T08:56:38;96094.44;;;3.74;57.96
51083;BME280;37131;42.694;23.350;2023-02-03T08:59:04;96095.72;;;3.86;57.35
51083;BME280;37131;42.694;23.350;2023-02-03T09:01:30;96094.75;;;4.03;57.22
51083;BME280;37131;42.694;23.350;2023-02-03T09:03:55;96088.72;;;3.45;57.93
51083;BME280;37131;42.694;23.350;2023-02-03T09:06:21;96098.13;;;3.55;58.53
51083;BME280;37131;42.694;23.350;2023-02-03T09:08:47;96093.28;;;3.68;58.88
51083;BME280;37131;42.694;23.350;2023-02-03T09:11:17;96104.03;;;3.47;60.30
51083;BME280;37131;42.694;23.350;2023-02-03T09:13:42;96087.63;;;3.56;60.29
51083;BME280;37131;42.694;23.350;2023-02-03T09:16:11;96089.25;;;3.65;60.17
51083;BME280;37131;42.694;23.350;2023-02-03T09:18:37;96077.00;;;3.67;60.16
51083;BME280;37131;42.694;23.350;2023-02-03T09:21:06;96069.59;;;3.81;59.58
51083;BME280;37131;42.694;23.350;2023-02-03T09:23:33;96062.50;;;3.75;59.82
51083;BME280;37131;42.694;23.350;2023-02-03T09:26:07;96084.91;;;3.66;58.75
51083;BME280;37131;42.694;23.350;2023-02-03T09:28:33;96082.97;;;3.68;59.28
51083;BME280;37131;42.694;23.350;2023-02-03T09:31:00;96082.00;;;3.69;59.47
51083;BME280;37131;42.694;23.350;2023-02-03T09:33:26;96082.66;;;3.88;57.62
51083;BME280;37131;42.694;23.350;2023-02-03T09:35:52;96092.66;;;3.82;57.78
51083;BME280;37131;42.694;23.350;2023-02-03T09:38:18;96084.06;;;3.57;58.80
51083;BME280;37131;42.694;23.350;2023-02-03T09:40:46;96092.16;;;3.95;58.88
51083;BME280;37131;42.694;23.350;2023-02-03T09:45:42;96083.75;;;3.52;60.22
51083;BME280;37131;42.694;23.350;2023-02-03T09:48:21;96003.63;;;3.12;60.97
51083;BME280;37131;42.694;23.350;2023-02-03T09:50:49;96084.44;;;3.79;59.90
51083;BME280;37131;42.694;23.350;2023-02-03T09:53:29;96081.53;;;3.74;59.08
51083;BME280;37131;42.694;23.350;2023-02-03T09:55:58;96084.41;;;3.62;58.40
51083;BME280;37131;42.694;23.350;2023-02-03T09:58:26;96076.03;;;3.60;57.15
51083;BME280;37131;42.694;23.350;2023-02-03T10:00:56;96066.06;;;3.74;57.54
51083;BME280;37131;42.694;23.350;2023-02-03T10:03:46;96071.84;;;3.43;57.62
51083;BME280;37131;42.694;23.350;2023-02-03T10:06:42;96068.63;;;3.82;56.90
51083;BME280;37131;42.694;23.350;2023-02-03T10:14:57;96058.56;;;4.36;54.40
51083;BME280;37131;42.694;23.350;2023-02-03T10:17:30;96083.75;;;4.34;53.29
51083;BME280;37131;42.694;23.350;2023-02-03T10:23:08;96060.88;;;4.07;53.59
51083;BME280;37131;42.694;23.350;2023-02-03T10:25:49;96050.41;;;4.08;52.37
51083;BME280;37131;42.694;23.350;2023-02-03T10:28:20;96066.53;;;4.02;53.54
51083;BME280;37131;42.694;23.350;2023-02-03T10:30:54;96054.94;;;4.06;53.41
51083;BME280;37131;42.694;23.350;2023-02-03T10:33:20;96000.94;;;3.80;52.72
51083;BME280;37131;42.694;23.350;2023-02-03T10:35:51;96051.03;;;4.10;51.83
51083;BME280;37131;42.694;23.350;2023-02-03T10:38:43;96056.66;;;4.30;51.40
51083;BME280;37131;42.694;23.350;2023-02-03T10:41:12;96066.16;;;4.38;50.90
51083;BME280;37131;42.694;23.350;2023-02-03T10:43:38;96057.56;;;4.46;50.24
51083;BME280;37131;42.694;23.350;2023-02-03T10:46:35;96049.81;;;4.54;49.50
51083;BME280;37131;42.694;23.350;2023-02-03T10:49:02;96045.09;;;4.66;50.80
51083;BME280;37131;42.694;23.350;2023-02-03T10:51:29;96057.50;;;4.70;50.21
51083;BME280;37131;42.694;23.350;2023-02-03T10:53:59;96072.88;;;4.64;49.16
51083;BME280;37131;42.694;23.350;2023-02-03T10:56:31;96064.41;;;4.22;48.60
51083;BME280;37131;42.694;23.350;2023-02-03T10:58:59;96064.06;;;4.33;49.40
51083;BME280;37131;42.694;23.350;2023-02-03T11:01:27;95960.16;;;3.67;48.76
51083;BME280;37131;42.694;23.350;2023-02-03T11:03:57;96045.31;;;4.48;48.09
51083;BME280;37131;42.694;23.350;2023-02-03T11:06:23;96050.69;;;4.78;47.59
51083;BME280;37131;42.694;23.350;2023-02-03T11:08:49;96044.50;;;4.55;46.42
51083;BME280;37131;42.694;23.350;2023-02-03T11:11:26;96047.84;;;4.72;47.49
51083;BME280;37131;42.694;23.350;2023-02-03T11:13:52;96037.94;;;4.84;47.37
51083;BME280;37131;42.694;23.350;2023-02-03T11:16:18;96001.16;;;4.26;46.67
51083;BME280;37131;42.694;23.350;2023-02-03T11:19:04;95951.59;;;4.31;45.92
51083;BME280;37131;42.694;23.350;2023-02-03T11:21:40;95982.84;;;3.96;46.88
51083;BME280;37131;42.694;23.350;2023-02-03T11:24:22;96030.97;;;4.37;48.11
51083;BME280;37131;42.694;23.350;2023-02-03T11:26:57;96033.66;;;4.60;45.54
51083;BME280;37131;42.694;23.350;2023-02-03T11:29:34;96016.22;;;4.62;44.29
51083;BME280;37131;42.694;23.350;2023-02-03T11:32:34;96015.97;;;4.80;44.42
51083;BME280;37131;42.694;23.350;2023-02-03T11:35:25;96025.38;;;4.73;46.09
51083;BME280;37131;42.694;23.350;2023-02-03T11:37:56;96007.59;;;5.09;46.34
51083;BME280;37131;42.694;23.350;2023-02-03T11:40:24;96006.28;;;4.82;46.38
51083;BME280;37131;42.694;23.350;2023-02-03T11:47:54;96003.44;;;4.69;46.89
51083;BME280;37131;42.694;23.350;2023-02-03T11:50:28;96010.13;;;4.55;47.43
51083;BME280;37131;42.694;23.350;2023-02-03T11:53:13;96005.63;;;4.49;46.61
51083;BME280;37131;42.694;23.350;2023-02-03T12:12:19;96002.44;;;5.33;41.09
51083;BME280;37131;42.694;23.350;2023-02-03T12:21:06;95982.06;;;6.29;40.63
51083;BME280;37131;42.694;23.350;2023-02-03T12:26:24;95979.22;;;8.33;34.21
51083;BME280;37131;42.694;23.350;2023-02-03T12:31:35;95978.13;;;7.64;35.30
51083;BME280;37131;42.694;23.350;2023-02-03T12:34:38;95982.59;;;7.49;35.20
51083;BME280;37131;42.694;23.350;2023-02-03T12:37:25;95983.69;;;7.83;34.17
51083;BME280;37131;42.694;23.350;2023-02-03T12:40:08;95980.03;;;7.77;34.61
51083;BME280;37131;42.694;23.350;2023-02-03T12:42:45;95961.19;;;6.67;36.80
51083;BME280;37131;42.694;23.350;2023-02-03T12:45:17;95991.25;;;5.40;38.72
51083;BME280;37131;42.694;23.350;2023-02-03T12:47:54;95964.59;;;5.17;40.45
51083;BME280;37131;42.694;23.350;2023-02-03T12:52:54;95967.28;;;6.74;38.51
51083;BME280;37131;42.694;23.350;2023-02-03T12:58:02;95966.22;;;5.94;40.04
51083;BME280;37131;42.694;23.350;2023-02-03T13:00:51;95955.44;;;5.29;40.65
51083;BME280;37131;42.694;23.350;2023-02-03T13:09:24;95961.91;;;4.79;43.54
51083;BME280;37131;42.694;23.350;2023-02-03T13:12:01;95965.56;;;4.53;44.66
51083;BME280;37131;42.694;23.350;2023-02-03T13:14:33;95978.25;;;4.23;45.71
51083;BME280;37131;42.694;23.350;2023-02-03T13:17:07;95964.47;;;3.83;45.26
51083;BME280;37131;42.694;23.350;2023-02-03T13:19:46;95951.41;;;4.80;43.74
51083;BME280;37131;42.694;23.350;2023-02-03T13:22:14;95949.97;;;5.01;43.41
51083;BME280;37131;42.694;23.350;2023-02-03T13:24:52;95961.47;;;4.27;44.91
51083;BME280;37131;42.694;23.350;2023-02-03T13:27:29;95937.53;;;4.42;45.97
51083;BME280;37131;42.694;23.350;2023-02-03T13:38:44;95938.53;;;4.32;46.95
51083;BME280;37131;42.694;23.350;2023-02-03T13:41:23;95935.22;;;4.15;45.87
51083;BME280;37131;42.694;23.350;2023-02-03T13:43:53;95926.28;;;3.78;45.93
51083;BME280;37131;42.694;23.350;2023-02-03T13:46:24;95953.50;;;3.97;46.55
51083;BME280;37131;42.694;23.350;2023-02-03T13:48:51;95935.94;;;3.93;46.31
51083;BME280;37131;42.694;23.350;2023-02-03T13:51:24;95959.19;;;3.60;47.82
51083;BME280;37131;42.694;23.350;2023-02-03T13:53:58;95943.88;;;3.66;48.44
51083;BME280;37131;42.694;23.350;2023-02-03T13:56:26;95954.34;;;3.57;48.32
51083;BME280;37131;42.694;23.350;2023-02-03T14:01:29;95957.09;;;3.39;50.07
51083;BME280;37131;42.694;23.350;2023-02-03T14:03:56;95938.09;;;3.31;50.50
51083;BME280;37131;42.694;23.350;2023-02-03T14:09:18;95963.22;;;3.71;50.13
51083;BME280;37131;42.694;23.350;2023-02-03T14:11:45;95961.28;;;3.48;50.73
51083;BME280;37131;42.694;23.350;2023-02-03T14:16:46;95957.72;;;3.57;51.44
51083;BME280;37131;42.694;23.350;2023-02-03T14:21:59;95964.38;;;3.51;51.80
51083;BME280;37131;42.694;23.350;2023-02-03T14:24:35;95963.53;;;3.51;51.55
51083;BME280;37131;42.694;23.350;2023-02-03T14:27:14;95952.41;;;3.59;51.33
51083;BME280;37131;42.694;23.350;2023-02-03T14:29:40;95933.72;;;3.57;50.77
51083;BME280;37131;42.694;23.350;2023-02-03T14:32:12;95946.16;;;3.45;51.65
51083;BME280;37131;42.694;23.350;2023-02-03T14:34:48;95955.31;;;3.72;51.26
51083;BME280;37131;42.694;23.350;2023-02-03T15:01:23;95935.31;;;3.82;49.87
51083;BME280;37131;42.694;23.350;2023-02-03T15:04:27;95928.38;;;3.75;47.86
51083;BME280;37131;42.694;23.350;2023-02-03T15:06:52;95926.25;;;3.95;48.16
51083;BME280;37131;42.694;23.350;2023-02-03T15:09:35;95924.16;;;3.82;47.99
51083;BME280;37131;42.694;23.350;2023-02-03T15:12:24;95911.66;;;3.46;45.91